Time;durP1;ratioP1;P1;durP2;ratioP2;P2;SDS_P1;SDS_P2;PMS_P1;PMS_P2;Temp;Humidity;BMP_temperature;BMP_pressure;BME280_temperature;BME280_humidity;BME280_pressure;Samples;Min_cycle;Max_cycle;Signal;HPM_P1;HPM_P2
2022/09/06 00:00:40;;;;;;;;;;;20.10;70.80;;;;;;5051099;28;19920;-86
2022/09/06 00:03:07;;;;;;;;;;;20.10;71.00;;;;;;5041997;28;19982;-85
2022/09/06 00:05:32;;;;;;;;;;;20.10;70.80;;;;;;5039713;28;19912;-84
2022/09/06 00:07:58;;;;;;;;;;;20.10;71.30;;;;;;5041545;28;19917;-86
2022/09/06 00:10:24;;;;;;;;;;;20.00;71.20;;;;;;5039647;28;19936;-86
2022/09/06 00:12:50;;;;;;;;;;;20.10;71.40;;;;;;5046749;28;20648;-85
2022/09/06 00:15:15;;;;;;;;;;;20.00;71.40;;;;;;5042757;28;20012;-85
2022/09/06 00:17:43;;;;;;;;;;;20.10;71.40;;;;;;5035740;28;19979;-86
2022/09/06 00:20:09;;;;;;;;;;;20.10;71.70;;;;;;5032253;28;19916;-86
2022/09/06 00:22:35;;;;;;;;;;;20.10;71.60;;;;;;5034779;28;20003;-86
2022/09/06 00:25:01;;;;;;;;;;;20.10;71.30;;;;;;5032194;28;19909;-86
2022/09/06 00:27:27;;;;;;;;;;;20.10;71.60;;;;;;5030034;28;20418;-86
2022/09/06 00:29:52;;;;;;;;;;;20.10;71.40;;;;;;5034438;28;19913;-86
2022/09/06 00:32:18;;;;;;;;;;;20.00;71.60;;;;;;5028045;28;19975;-86
2022/09/06 00:34:43;;;;;;;;;;;19.90;71.60;;;;;;5026378;28;19913;-86
2022/09/06 00:37:09;;;;;;;;;;;19.80;71.60;;;;;;5047587;28;19909;-86
2022/09/06 00:39:34;;;;;;;;;;;19.80;71.60;;;;;;5028355;28;19921;-85
2022/09/06 00:42:00;;;;;;;;;;;19.70;71.80;;;;;;5047355;28;19924;-84
2022/09/06 00:44:25;;;;;;;;;;;19.70;72.20;;;;;;5035425;28;19948;-86
2022/09/06 00:46:52;;;;;;;;;;;19.70;72.60;;;;;;5030532;28;19921;-86
2022/09/06 00:49:23;;;;;;;;;;;19.70;72.40;;;;;;5030958;28;20363;-86
2022/09/06 00:51:56;;;;;;;;;;;19.70;73.00;;;;;;5030309;28;19988;-86
2022/09/06 00:54:22;;;;;;;;;;;19.70;73.00;;;;;;5034063;28;19960;-86
2022/09/06 00:56:47;;;;;;;;;;;19.70;73.00;;;;;;5035044;28;19955;-86
2022/09/06 00:59:13;;;;;;;;;;;19.70;72.90;;;;;;5032694;28;19923;-85
2022/09/06 01:01:39;;;;;;;;;;;19.80;73.00;;;;;;5045688;28;20311;-86
2022/09/06 01:04:04;;;;;;;;;;;19.80;73.20;;;;;;5027245;28;19913;-86
2022/09/06 01:06:46;;;;;;;;;;;19.80;72.90;;;;;;5028700;28;19913;-87
2022/09/06 01:09:15;;;;;;;;;;;19.80;72.40;;;;;;5037097;28;19928;-86
2022/09/06 01:11:59;;;;;;;;;;;19.90;72.80;;;;;;5046189;28;19919;-85
2022/09/06 01:14:34;;;;;;;;;;;19.90;72.90;;;;;;5032293;28;19935;-86
2022/09/06 01:17:07;;;;;;;;;;;19.80;72.70;;;;;;5030782;28;19991;-85
2022/09/06 01:19:41;;;;;;;;;;;19.80;72.40;;;;;;5029410;28;19970;-86
2022/09/06 01:22:22;;;;;;;;;;;19.90;71.40;;;;;;5048931;28;19929;-85
2022/09/06 01:25:17;;;;;;;;;;;20.00;68.30;;;;;;5031408;28;19913;-86
2022/09/06 01:28:01;;;;;;;;;;;20.20;67.50;;;;;;5014398;28;20327;-84
2022/09/06 01:30:28;;;;;;;;;;;20.20;67.90;;;;;;5038920;28;19919;-86
2022/09/06 01:33:12;;;;;;;;;;;20.30;67.10;;;;;;5032214;28;19967;-84
2022/09/06 01:35:49;;;;;;;;;;;20.30;65.00;;;;;;5033036;28;19919;-86
2022/09/06 01:38:15;;;;;;;;;;;20.30;65.90;;;;;;5025577;28;19921;-85
2022/09/06 01:40:40;;;;;;;;;;;20.50;63.90;;;;;;5023991;28;19924;-86
2022/09/06 01:43:08;;;;;;;;;;;20.40;64.70;;;;;;5028283;28;19913;-86
2022/09/06 01:45:42;;;;;;;;;;;20.40;65.00;;;;;;5036816;28;19932;-86
2022/09/06 01:48:19;;;;;;;;;;;20.40;65.80;;;;;;5035201;28;19913;-85
2022/09/06 01:50:53;;;;;;;;;;;20.40;65.20;;;;;;5050857;28;20413;-86
2022/09/06 01:53:38;;;;;;;;;;;20.30;64.80;;;;;;5042248;28;20528;-85
2022/09/06 01:56:12;;;;;;;;;;;20.30;65.20;;;;;;5041899;28;20019;-85
2022/09/06 01:58:58;;;;;;;;;;;20.40;64.50;;;;;;5055508;28;19928;-85
2022/09/06 02:01:36;;;;;;;;;;;20.40;63.40;;;;;;5015126;28;19926;-85
2022/09/06 02:04:14;;;;;;;;;;;20.40;64.30;;;;;;5046710;28;20436;-85
2022/09/06 02:06:42;;;;;;;;;;;20.50;61.60;;;;;;5033414;28;19921;-85
2022/09/06 02:09:10;;;;;;;;;;;20.60;60.80;;;;;;5035723;28;19959;-85
2022/09/06 02:11:40;;;;;;;;;;;20.70;60.00;;;;;;5050358;28;19921;-85
2022/09/06 02:14:10;;;;;;;;;;;20.90;59.50;;;;;;5049313;28;19917;-85
2022/09/06 02:16:37;;;;;;;;;;;20.90;59.20;;;;;;5038986;28;19921;-85
2022/09/06 02:19:09;;;;;;;;;;;21.00;59.00;;;;;;5038727;28;19951;-85
2022/09/06 02:21:37;;;;;;;;;;;21.10;59.20;;;;;;5034859;28;20398;-85
2022/09/06 02:24:04;;;;;;;;;;;21.10;59.30;;;;;;5032559;28;19948;-86
2022/09/06 02:26:33;;;;;;;;;;;21.10;59.80;;;;;;5031903;28;19913;-86
2022/09/06 02:28:58;;;;;;;;;;;21.10;60.20;;;;;;5034723;28;19920;-85
2022/09/06 02:31:36;;;;;;;;;;;21.10;60.60;;;;;;5041257;28;20008;-86
2022/09/06 02:34:02;;;;;;;;;;;21.10;60.70;;;;;;5031001;28;19924;-85
2022/09/06 02:36:28;;;;;;;;;;;21.00;61.20;;;;;;5036809;28;19913;-86
2022/09/06 02:38:54;;;;;;;;;;;21.00;61.80;;;;;;5031215;28;19921;-86
2022/09/06 02:41:21;;;;;;;;;;;21.00;63.00;;;;;;5037089;28;19939;-85
2022/09/06 02:43:47;;;;;;;;;;;21.00;63.80;;;;;;5030820;28;19921;-86
2022/09/06 02:46:13;;;;;;;;;;;20.90;64.90;;;;;;5037656;28;19920;-85
2022/09/06 02:48:38;;;;;;;;;;;20.80;65.50;;;;;;5032457;28;19920;-86
2022/09/06 02:51:05;;;;;;;;;;;20.80;65.90;;;;;;5041488;28;19917;-85
2022/09/06 02:53:30;;;;;;;;;;;20.70;66.80;;;;;;5060358;28;19925;-85
2022/09/06 02:55:56;;;;;;;;;;;20.70;66.70;;;;;;5057752;28;19901;-84
2022/09/06 02:58:22;;;;;;;;;;;20.80;64.80;;;;;;5043316;28;19921;-86
2022/09/06 03:00:48;;;;;;;;;;;20.70;65.30;;;;;;5036903;28;20290;-85
2022/09/06 03:03:14;;;;;;;;;;;20.80;64.90;;;;;;5049737;28;19920;-85
2022/09/06 03:05:41;;;;;;;;;;;20.70;65.90;;;;;;5069472;28;20004;-85
2022/09/06 03:08:06;;;;;;;;;;;20.70;66.40;;;;;;5051644;28;19948;-85
2022/09/06 03:10:32;;;;;;;;;;;20.60;66.60;;;;;;5050327;28;20295;-85
2022/09/06 03:12:57;;;;;;;;;;;20.60;66.50;;;;;;5063995;28;20696;-86
2022/09/06 03:15:23;;;;;;;;;;;20.60;66.20;;;;;;5034817;28;19913;-85
2022/09/06 03:17:48;;;;;;;;;;;20.60;67.10;;;;;;5033840;28;19919;-86
2022/09/06 03:20:14;;;;;;;;;;;20.60;67.90;;;;;;5035493;28;20000;-85
2022/09/06 03:22:39;;;;;;;;;;;20.60;67.90;;;;;;5046718;28;19917;-86
2022/09/06 03:25:05;;;;;;;;;;;20.50;68.40;;;;;;5033153;28;19999;-85
2022/09/06 03:27:31;;;;;;;;;;;20.50;68.40;;;;;;5030872;28;19913;-86
2022/09/06 03:29:56;;;;;;;;;;;20.50;68.40;;;;;;5032315;28;20398;-85
2022/09/06 03:32:22;;;;;;;;;;;20.50;68.20;;;;;;5034032;28;19913;-86
2022/09/06 03:34:47;;;;;;;;;;;20.40;68.00;;;;;;5035200;28;19913;-86
2022/09/06 03:37:13;;;;;;;;;;;20.40;68.60;;;;;;5049120;28;19960;-85
2022/09/06 03:39:38;;;;;;;;;;;20.40;68.70;;;;;;5036308;28;19909;-85
2022/09/06 03:42:04;;;;;;;;;;;20.40;69.20;;;;;;5050751;28;19939;-86
2022/09/06 03:44:29;;;;;;;;;;;20.40;69.00;;;;;;5048553;28;19920;-85
2022/09/06 03:46:55;;;;;;;;;;;20.30;69.50;;;;;;5034154;28;19917;-85
2022/09/06 03:49:20;;;;;;;;;;;20.30;69.90;;;;;;5033232;28;20296;-85
2022/09/06 03:51:46;;;;;;;;;;;20.30;70.10;;;;;;5030202;28;19924;-85
2022/09/06 03:54:11;;;;;;;;;;;20.30;68.80;;;;;;5030876;28;19919;-85
2022/09/06 03:56:37;;;;;;;;;;;20.30;68.30;;;;;;5051643;28;20012;-85
2022/09/06 03:59:03;;;;;;;;;;;20.40;68.00;;;;;;5036907;28;20437;-85
2022/09/06 04:01:28;;;;;;;;;;;20.40;67.80;;;;;;5031324;28;19931;-86
2022/09/06 04:03:53;;;;;;;;;;;20.40;68.20;;;;;;5030961;28;19963;-86
2022/09/06 04:06:19;;;;;;;;;;;20.40;68.60;;;;;;5029380;28;19909;-85
2022/09/06 04:08:44;;;;;;;;;;;20.40;69.20;;;;;;5031636;28;19927;-86
2022/09/06 04:11:10;;;;;;;;;;;20.40;69.10;;;;;;5032661;28;19917;-85
2022/09/06 04:13:36;;;;;;;;;;;20.30;69.10;;;;;;5032097;28;19917;-85
2022/09/06 04:16:02;;;;;;;;;;;20.20;69.00;;;;;;5038184;28;19937;-84
2022/09/06 04:18:27;;;;;;;;;;;20.10;69.60;;;;;;5034927;28;19917;-84
2022/09/06 04:20:54;;;;;;;;;;;20.20;69.90;;;;;;5037237;28;19917;-86
2022/09/06 04:23:20;;;;;;;;;;;20.10;70.60;;;;;;5031120;28;19922;-87
2022/09/06 04:25:50;;;;;;;;;;;20.10;69.50;;;;;;5036221;28;19917;-84
2022/09/06 04:28:17;;;;;;;;;;;20.10;69.70;;;;;;5032911;28;19923;-86
2022/09/06 04:31:06;;;;;;;;;;;20.10;70.90;;;;;;5034533;28;19952;-88
2022/09/06 04:33:38;;;;;;;;;;;20.10;71.00;;;;;;5050525;28;19913;-89
2022/09/06 04:36:23;;;;;;;;;;;20.00;72.10;;;;;;5028060;28;19960;-88
2022/09/06 04:39:05;;;;;;;;;;;20.00;72.90;;;;;;5045994;28;19919;-89
2022/09/06 04:41:31;;;;;;;;;;;20.00;72.70;;;;;;5028033;28;19932;-89
2022/09/06 04:43:57;;;;;;;;;;;20.10;72.50;;;;;;5028297;28;19914;-85
2022/09/06 04:46:25;;;;;;;;;;;20.10;72.50;;;;;;5047287;28;19910;-85
2022/09/06 04:48:51;;;;;;;;;;;20.10;72.00;;;;;;5029329;28;20379;-85
2022/09/06 04:51:17;;;;;;;;;;;20.10;71.60;;;;;;5032829;28;19909;-85
2022/09/06 04:53:45;;;;;;;;;;;20.00;71.70;;;;;;5030544;28;19913;-88
2022/09/06 04:56:12;;;;;;;;;;;20.10;72.00;;;;;;5032998;28;19916;-89
2022/09/06 04:58:37;;;;;;;;;;;20.00;72.50;;;;;;5105543;22;19950;-80
2022/09/06 05:01:03;;;;;;;;;;;20.10;71.00;;;;;;5057737;28;19920;-80
2022/09/06 05:03:28;;;;;;;;;;;20.10;70.90;;;;;;5066680;28;20051;-80
2022/09/06 05:06:02;;;;;;;;;;;20.00;70.60;;;;;;5044777;28;19913;-82
2022/09/06 05:08:28;;;;;;;;;;;20.00;70.70;;;;;;5051813;28;19920;-80
2022/09/06 05:10:53;;;;;;;;;;;20.00;70.50;;;;;;5041051;28;19913;-80
2022/09/06 05:13:18;;;;;;;;;;;20.00;71.00;;;;;;5043442;28;19917;-78
2022/09/06 05:15:44;;;;;;;;;;;20.00;71.30;;;;;;5060490;28;20000;-78
2022/09/06 05:18:09;;;;;;;;;;;19.90;71.00;;;;;;5058299;28;19913;-78
2022/09/06 05:20:35;;;;;;;;;;;19.90;70.80;;;;;;5038814;28;19916;-78
2022/09/06 05:23:01;;;;;;;;;;;20.00;71.00;;;;;;5060257;28;19917;-79
2022/09/06 05:25:26;;;;;;;;;;;19.90;71.20;;;;;;5057039;28;19978;-78
2022/09/06 05:27:52;;;;;;;;;;;20.00;70.60;;;;;;5035063;28;19932;-80
2022/09/06 05:30:18;;;;;;;;;;;20.00;70.90;;;;;;5033391;28;19914;-81
2022/09/06 05:32:43;;;;;;;;;;;19.90;71.50;;;;;;5061536;28;19913;-78
2022/09/06 05:35:09;;;;;;;;;;;20.00;71.40;;;;;;5060505;28;20420;-80
2022/09/06 05:37:34;;;;;;;;;;;20.00;71.50;;;;;;5063674;28;19925;-80
2022/09/06 05:40:00;;;;;;;;;;;20.00;72.30;;;;;;5060171;28;19952;-80
2022/09/06 05:42:26;;;;;;;;;;;20.10;70.70;;;;;;5031690;28;21053;-80
2022/09/06 05:44:51;;;;;;;;;;;20.10;70.40;;;;;;5068453;28;19920;-81
2022/09/06 05:47:17;;;;;;;;;;;20.10;70.80;;;;;;5069030;28;19913;-80
2022/09/06 05:49:42;;;;;;;;;;;20.10;71.80;;;;;;5052151;28;19909;-80
2022/09/06 05:52:09;;;;;;;;;;;20.10;71.90;;;;;;5051132;28;19913;-80
2022/09/06 05:54:34;;;;;;;;;;;20.20;71.90;;;;;;5070480;28;19917;-80
2022/09/06 05:57:01;;;;;;;;;;;20.20;70.70;;;;;;5051907;28;19923;-80
2022/09/06 05:59:26;;;;;;;;;;;20.20;70.30;;;;;;5069478;28;20003;-81
2022/09/06 06:01:52;;;;;;;;;;;20.30;70.00;;;;;;5058626;28;19916;-80
2022/09/06 06:04:18;;;;;;;;;;;20.40;70.60;;;;;;5068261;28;20019;-79
2022/09/06 06:06:44;;;;;;;;;;;20.40;70.50;;;;;;5068729;28;19948;-80
2022/09/06 06:09:10;;;;;;;;;;;20.40;71.20;;;;;;5050239;28;19909;-81
2022/09/06 06:11:35;;;;;;;;;;;20.50;70.20;;;;;;5070089;28;20288;-80
2022/09/06 06:14:02;;;;;;;;;;;20.50;70.40;;;;;;5069350;28;19913;-80
2022/09/06 06:16:27;;;;;;;;;;;20.50;70.10;;;;;;5051232;28;19920;-80
2022/09/06 06:18:53;;;;;;;;;;;20.50;70.60;;;;;;5069023;28;20288;-80
2022/09/06 06:21:19;;;;;;;;;;;20.30;70.50;;;;;;5068092;28;19917;-80
2022/09/06 06:23:46;;;;;;;;;;;20.40;70.30;;;;;;5068505;28;20505;-80
2022/09/06 06:26:12;;;;;;;;;;;20.40;70.20;;;;;;5067840;28;20045;-80
2022/09/06 06:28:38;;;;;;;;;;;20.30;70.50;;;;;;5061567;28;19977;-80
2022/09/06 06:31:04;;;;;;;;;;;20.40;69.90;;;;;;5030614;28;19921;-81
2022/09/06 06:33:31;;;;;;;;;;;20.40;70.40;;;;;;5062683;28;19947;-81
2022/09/06 06:35:57;;;;;;;;;;;20.50;70.40;;;;;;5064264;28;19908;-81
2022/09/06 06:38:23;;;;;;;;;;;20.50;70.60;;;;;;5050438;28;19913;-80
2022/09/06 06:40:48;;;;;;;;;;;20.50;70.30;;;;;;5046522;28;19959;-81
2022/09/06 06:43:14;;;;;;;;;;;20.50;70.30;;;;;;5047603;28;19916;-81
2022/09/06 06:45:39;;;;;;;;;;;20.50;70.10;;;;;;5061446;28;19952;-81
2022/09/06 06:48:04;;;;;;;;;;;20.60;70.20;;;;;;5043793;28;19917;-80
2022/09/06 06:50:30;;;;;;;;;;;20.80;68.80;;;;;;5057982;28;19908;-80
2022/09/06 06:53:06;;;;;;;;;;;21.00;67.90;;;;;;5046511;28;19962;-80
2022/09/06 06:55:32;;;;;;;;;;;21.10;67.20;;;;;;5066859;28;19980;-81
2022/09/06 06:58:00;;;;;;;;;;;21.10;66.90;;;;;;5066200;28;19913;-80
2022/09/06 07:00:26;;;;;;;;;;;21.20;67.10;;;;;;5065398;28;20007;-81
2022/09/06 07:02:55;;;;;;;;;;;21.20;67.30;;;;;;5064924;28;19913;-80
2022/09/06 07:05:21;;;;;;;;;;;21.20;67.50;;;;;;5067042;28;19913;-80
2022/09/06 07:07:46;;;;;;;;;;;21.30;66.90;;;;;;5064469;28;19920;-80
2022/09/06 07:10:12;;;;;;;;;;;21.30;67.30;;;;;;5064637;28;19989;-80
2022/09/06 07:12:37;;;;;;;;;;;21.30;67.50;;;;;;5067173;28;19936;-80
2022/09/06 07:15:03;;;;;;;;;;;21.40;66.70;;;;;;5062614;28;19921;-79
2022/09/06 07:17:28;;;;;;;;;;;21.50;66.40;;;;;;5062294;28;19935;-79
2022/09/06 07:19:54;;;;;;;;;;;21.70;65.70;;;;;;5058138;28;20023;-78
2022/09/06 07:22:19;;;;;;;;;;;22.00;64.80;;;;;;5063802;28;19921;-78
2022/09/06 07:24:45;;;;;;;;;;;22.00;65.10;;;;;;5065635;28;19920;-78
2022/09/06 07:27:12;;;;;;;;;;;21.90;65.00;;;;;;5063337;28;22562;-78
2022/09/06 07:29:37;;;;;;;;;;;22.10;64.00;;;;;;5065019;28;19909;-79
2022/09/06 07:32:03;;;;;;;;;;;22.00;64.50;;;;;;5064577;28;19920;-79
2022/09/06 07:34:28;;;;;;;;;;;22.00;63.50;;;;;;5046499;28;19908;-78
2022/09/06 07:36:54;;;;;;;;;;;22.10;63.90;;;;;;5064071;28;19920;-78
2022/09/06 07:39:20;;;;;;;;;;;22.10;63.10;;;;;;5046561;28;20008;-79
2022/09/06 07:41:45;;;;;;;;;;;22.10;62.90;;;;;;5065822;28;20511;-79
2022/09/06 07:44:11;;;;;;;;;;;22.30;61.90;;;;;;5066577;28;19909;-79
2022/09/06 07:46:37;;;;;;;;;;;22.50;61.30;;;;;;5066160;28;19994;-78
2022/09/06 07:49:03;;;;;;;;;;;22.80;60.30;;;;;;5064697;28;19924;-78
2022/09/06 07:51:28;;;;;;;;;;;22.80;59.20;;;;;;5064454;28;19939;-78
2022/09/06 07:53:57;;;;;;;;;;;22.80;59.70;;;;;;5065217;28;19916;-78
2022/09/06 07:56:22;;;;;;;;;;;22.90;58.40;;;;;;5066262;28;19909;-78
2022/09/06 07:58:48;;;;;;;;;;;23.00;58.70;;;;;;5066442;28;19912;-78
2022/09/06 08:01:29;;;;;;;;;;;23.10;56.60;;;;;;5068498;28;19913;-78
2022/09/06 08:03:58;;;;;;;;;;;23.20;56.10;;;;;;5067665;28;20549;-79
2022/09/06 08:06:25;;;;;;;;;;;23.20;56.90;;;;;;5066271;28;19913;-78
2022/09/06 08:08:50;;;;;;;;;;;23.10;57.40;;;;;;5057128;28;19909;-79
2022/09/06 08:11:16;;;;;;;;;;;23.10;58.00;;;;;;5063411;28;19920;-79
2022/09/06 08:13:42;;;;;;;;;;;23.00;57.90;;;;;;5067080;28;19909;-79
2022/09/06 08:16:08;;;;;;;;;;;23.40;56.70;;;;;;5067062;28;19919;-79
2022/09/06 08:18:34;;;;;;;;;;;23.50;56.80;;;;;;5066531;28;19913;-79
2022/09/06 08:21:07;;;;;;;;;;;23.50;57.10;;;;;;5066134;28;19917;-79
2022/09/06 08:23:33;;;;;;;;;;;23.50;56.50;;;;;;5064235;28;19913;-78
2022/09/06 08:25:58;;;;;;;;;;;23.50;57.90;;;;;;5062644;28;19931;-78
2022/09/06 08:28:24;;;;;;;;;;;23.50;57.80;;;;;;5064824;28;19909;-79
2022/09/06 08:30:50;;;;;;;;;;;23.60;57.00;;;;;;5062754;28;19963;-79
2022/09/06 08:33:18;;;;;;;;;;;23.80;55.30;;;;;;5063518;28;19916;-78
2022/09/06 08:35:53;;;;;;;;;;;24.00;54.70;;;;;;5064997;28;19909;-78
2022/09/06 08:38:18;;;;;;;;;;;24.00;53.90;;;;;;5061947;28;19917;-78
2022/09/06 08:40:43;;;;;;;;;;;24.10;53.60;;;;;;5064561;28;19919;-78
2022/09/06 08:43:15;;;;;;;;;;;24.10;53.50;;;;;;5065712;28;19901;-78
2022/09/06 08:45:41;;;;;;;;;;;24.30;52.90;;;;;;5070881;28;19909;-78
2022/09/06 08:48:06;;;;;;;;;;;24.50;52.70;;;;;;5070194;28;19985;-78
2022/09/06 08:50:33;;;;;;;;;;;24.40;52.70;;;;;;5068849;28;19935;-78
2022/09/06 08:53:01;;;;;;;;;;;24.40;52.30;;;;;;5069076;28;19893;-78
2022/09/06 08:55:44;;;;;;;;;;;24.40;52.80;;;;;;5071464;28;19909;-78
2022/09/06 08:58:25;;;;;;;;;;;24.30;53.70;;;;;;5071951;28;19943;-78
2022/09/06 09:00:57;;;;;;;;;;;24.30;53.90;;;;;;5063560;28;19917;-78
2022/09/06 09:03:30;;;;;;;;;;;24.40;51.90;;;;;;5071593;28;19972;-78
2022/09/06 09:05:56;;;;;;;;;;;24.50;52.00;;;;;;5049613;28;19957;-78
2022/09/06 09:08:26;;;;;;;;;;;24.60;51.90;;;;;;5047556;28;19948;-78
2022/09/06 09:10:55;;;;;;;;;;;24.90;50.50;;;;;;5064623;28;19916;-79
2022/09/06 09:13:24;;;;;;;;;;;24.90;49.90;;;;;;5045694;28;19917;-78
2022/09/06 09:15:50;;;;;;;;;;;25.00;49.50;;;;;;5063067;28;20404;-78
2022/09/06 09:18:19;;;;;;;;;;;25.10;49.80;;;;;;5063748;28;19980;-78
2022/09/06 09:20:44;;;;;;;;;;;25.00;50.10;;;;;;5062791;28;19970;-78
2022/09/06 09:23:13;;;;;;;;;;;25.10;49.40;;;;;;5064603;28;19917;-78
2022/09/06 09:25:39;;;;;;;;;;;25.10;49.30;;;;;;5046613;28;19909;-78
2022/09/06 09:28:11;;;;;;;;;;;25.00;49.70;;;;;;5045870;28;19908;-79
2022/09/06 09:30:50;;;;;;;;;;;25.10;49.50;;;;;;5056876;28;19951;-78
2022/09/06 09:33:23;;;;;;;;;;;25.20;49.00;;;;;;5041743;28;19920;-78
2022/09/06 09:35:49;;;;;;;;;;;25.40;49.30;;;;;;5031205;28;19909;-78
2022/09/06 09:38:33;;;;;;;;;;;25.40;49.40;;;;;;5043176;28;20449;-78
2022/09/06 09:41:00;;;;;;;;;;;25.50;47.80;;;;;;5048305;28;19967;-78
2022/09/06 09:43:35;;;;;;;;;;;25.70;47.60;;;;;;5060046;28;19913;-78
2022/09/06 09:46:14;;;;;;;;;;;25.60;48.20;;;;;;5049092;28;19912;-78
2022/09/06 09:49:02;;;;;;;;;;;25.60;47.30;;;;;;5045067;28;19974;-78
2022/09/06 09:51:28;;;;;;;;;;;25.80;47.10;;;;;;5053828;28;19913;-78
2022/09/06 09:54:02;;;;;;;;;;;25.80;46.60;;;;;;5048317;28;19909;-79
2022/09/06 09:56:40;;;;;;;;;;;25.90;46.80;;;;;;5068691;28;19909;-78
2022/09/06 09:59:17;;;;;;;;;;;25.90;47.60;;;;;;5045009;28;20351;-78
2022/09/06 10:01:43;;;;;;;;;;;25.80;46.60;;;;;;5050469;28;19912;-79
2022/09/06 10:04:09;;;;;;;;;;;25.70;46.30;;;;;;5067560;28;19909;-78
2022/09/06 10:06:35;;;;;;;;;;;25.80;46.40;;;;;;5068051;28;19909;-78
2022/09/06 10:09:14;;;;;;;;;;;25.90;46.30;;;;;;5066816;28;19913;-78
2022/09/06 10:11:47;;;;;;;;;;;25.90;46.70;;;;;;5065821;28;19917;-78
2022/09/06 10:14:23;;;;;;;;;;;25.80;46.10;;;;;;5061862;28;19917;-78
2022/09/06 10:16:50;;;;;;;;;;;25.90;46.40;;;;;;5056563;28;20373;-78
2022/09/06 10:19:35;;;;;;;;;;;25.80;46.30;;;;;;5060531;28;19919;-78
2022/09/06 10:22:07;;;;;;;;;;;25.80;46.60;;;;;;5064474;28;19917;-78
2022/09/06 10:24:52;;;;;;;;;;;25.90;46.10;;;;;;5045285;28;19967;-83
2022/09/06 10:27:21;;;;;;;;;;;25.80;45.70;;;;;;5056006;28;19917;-83
2022/09/06 10:29:51;;;;;;;;;;;25.80;46.30;;;;;;5056106;28;19913;-83
2022/09/06 10:32:35;;;;;;;;;;;25.50;47.90;;;;;;5057519;28;19908;-82
2022/09/06 10:35:03;;;;;;;;;;;25.80;46.50;;;;;;5040301;28;19955;-82
2022/09/06 10:37:38;;;;;;;;;;;25.90;46.90;;;;;;5057318;28;20345;-81
2022/09/06 10:40:08;;;;;;;;;;;25.90;46.70;;;;;;5046674;28;19917;-82
2022/09/06 10:42:53;;;;;;;;;;;25.90;46.10;;;;;;5053859;28;19917;-82
2022/09/06 10:45:30;;;;;;;;;;;25.90;47.70;;;;;;5053902;28;19927;-82
2022/09/06 10:48:15;;;;;;;;;;;26.00;46.80;;;;;;5035352;28;20336;-83
2022/09/06 10:50:48;;;;;;;;;;;26.00;47.30;;;;;;5029971;28;19912;-82
2022/09/06 10:53:20;;;;;;;;;;;26.00;47.10;;;;;;5030250;28;19919;-82
2022/09/06 10:55:49;;;;;;;;;;;26.10;46.30;;;;;;5040112;28;19920;-81
2022/09/06 10:58:20;;;;;;;;;;;26.10;46.10;;;;;;5045379;28;19913;-82
2022/09/06 11:00:46;;;;;;;;;;;26.40;45.40;;;;;;5070925;23;19991;-87
2022/09/06 11:03:23;;;;;;;;;;;26.50;45.70;;;;;;5048946;28;20003;-87
2022/09/06 11:05:53;;;;;;;;;;;26.60;44.90;;;;;;5051486;28;20035;-87
2022/09/06 11:08:28;;;;;;;;;;;26.70;45.20;;;;;;5048630;28;19916;-85
2022/09/06 11:10:54;;;;;;;;;;;26.70;45.70;;;;;;5040280;28;19917;-85
2022/09/06 11:13:25;;;;;;;;;;;26.80;44.60;;;;;;5054191;28;19905;-85
2022/09/06 11:15:54;;;;;;;;;;;26.80;45.20;;;;;;5054000;28;19902;-85
2022/09/06 11:18:26;;;;;;;;;;;26.70;46.40;;;;;;5026072;28;20671;-87
2022/09/06 11:21:10;;;;;;;;;;;26.70;45.60;;;;;;5028526;28;20635;-88
2022/09/06 11:23:38;;;;;;;;;;;26.60;45.90;;;;;;5037325;28;19917;-88
2022/09/06 11:26:10;;;;;;;;;;;26.40;45.50;;;;;;5029475;28;19920;-87
2022/09/06 11:28:44;;;;;;;;;;;26.40;46.40;;;;;;5029921;28;19963;-88
2022/09/06 11:31:12;;;;;;;;;;;26.40;47.50;;;;;;5015890;28;19914;-88
2022/09/06 11:33:38;;;;;;;;;;;26.40;47.00;;;;;;5026548;28;19919;-87
2022/09/06 11:36:36;;;;;;;;;;;26.60;45.90;;;;;;5030360;28;19917;-87
2022/09/06 11:39:03;;;;;;;;;;;26.70;44.80;;;;;;5004742;28;20000;-90
2022/09/06 11:41:32;;;;;;;;;;;27.10;43.80;;;;;;5026562;28;20214;-88
2022/09/06 11:43:58;;;;;;;;;;;27.30;43.60;;;;;;5029433;28;20461;-89
2022/09/06 11:46:47;;;;;;;;;;;27.20;44.40;;;;;;5021776;28;20017;-90
2022/09/06 11:49:29;;;;;;;;;;;27.10;44.80;;;;;;5015411;28;20004;-89
2022/09/06 11:51:55;;;;;;;;;;;27.10;44.20;;;;;;5025433;28;20339;-91
2022/09/06 11:54:39;;;;;;;;;;;27.30;43.80;;;;;;5022324;28;19920;-88
2022/09/06 11:57:31;;;;;;;;;;;27.20;43.60;;;;;;5028283;28;19924;-86
2022/09/06 12:00:02;;;;;;;;;;;27.20;43.50;;;;;;5013675;28;19921;-86
2022/09/06 12:02:34;;;;;;;;;;;27.10;44.80;;;;;;5023322;28;19917;-86
2022/09/06 12:05:00;;;;;;;;;;;27.00;43.80;;;;;;5026137;28;19921;-84
2022/09/06 12:07:29;;;;;;;;;;;27.10;44.30;;;;;;5020962;28;20381;-86
2022/09/06 12:09:55;;;;;;;;;;;27.30;43.90;;;;;;5025887;28;19920;-84
2022/09/06 12:12:40;;;;;;;;;;;27.50;43.40;;;;;;5023893;28;19963;-84
2022/09/06 12:15:22;;;;;;;;;;;27.50;43.10;;;;;;5022138;28;19956;-84
2022/09/06 12:17:48;;;;;;;;;;;27.40;44.20;;;;;;5021489;28;20236;-83
2022/09/06 12:20:33;;;;;;;;;;;27.40;43.60;;;;;;5023479;28;19917;-83
2022/09/06 12:22:59;;;;;;;;;;;27.40;43.30;;;;;;5018114;28;19924;-82
2022/09/06 12:25:33;;;;;;;;;;;27.50;43.00;;;;;;5030136;28;19964;-84
2022/09/06 12:28:00;;;;;;;;;;;27.50;44.50;;;;;;5021248;28;19921;-83
2022/09/06 12:30:46;;;;;;;;;;;27.40;44.20;;;;;;5018616;28;19964;-83
2022/09/06 12:33:21;;;;;;;;;;;27.50;43.20;;;;;;5032706;28;19913;-82
2022/09/06 12:35:47;;;;;;;;;;;27.50;42.90;;;;;;5029491;28;19921;-83
2022/09/06 12:38:13;;;;;;;;;;;27.50;43.90;;;;;;5030907;28;19913;-83
2022/09/06 12:40:44;;;;;;;;;;;27.60;43.50;;;;;;5030279;28;19917;-82
2022/09/06 12:43:10;;;;;;;;;;;27.80;43.30;;;;;;5026761;28;19921;-83
2022/09/06 12:45:40;;;;;;;;;;;28.00;42.90;;;;;;5033694;28;19928;-83
2022/09/06 12:48:07;;;;;;;;;;;28.10;42.90;;;;;;5035462;28;19925;-82
2022/09/06 12:50:33;;;;;;;;;;;28.20;42.80;;;;;;5026922;28;19913;-82
2022/09/06 12:52:59;;;;;;;;;;;28.00;42.50;;;;;;5021365;28;20315;-82
2022/09/06 12:55:33;;;;;;;;;;;28.00;42.60;;;;;;5028277;28;19913;-82
2022/09/06 12:57:59;;;;;;;;;;;28.10;41.80;;;;;;5031624;28;20143;-83
2022/09/06 13:00:30;;;;;;;;;;;28.10;41.40;;;;;;5027072;28;19917;-82
2022/09/06 13:03:04;;;;;;;;;;;28.10;42.20;;;;;;5027532;28;19921;-84
2022/09/06 13:05:30;;;;;;;;;;;28.40;41.70;;;;;;5031722;28;19963;-84
2022/09/06 13:07:57;;;;;;;;;;;28.30;41.70;;;;;;5018652;28;19917;-85
2022/09/06 13:10:24;;;;;;;;;;;28.20;42.10;;;;;;5031158;28;20359;-85
2022/09/06 13:12:51;;;;;;;;;;;28.20;41.20;;;;;;5029791;28;19913;-85
2022/09/06 13:15:18;;;;;;;;;;;28.10;41.90;;;;;;5021336;28;19921;-83
2022/09/06 13:17:44;;;;;;;;;;;28.00;42.30;;;;;;5027316;28;19913;-81
2022/09/06 13:20:11;;;;;;;;;;;28.00;42.40;;;;;;5027521;28;19921;-80
2022/09/06 13:22:39;;;;;;;;;;;28.00;42.80;;;;;;5036171;28;19920;-81
2022/09/06 13:25:11;;;;;;;;;;;28.30;42.00;;;;;;5024995;28;19913;-81
2022/09/06 13:27:44;;;;;;;;;;;28.20;42.10;;;;;;5027682;28;20382;-80
2022/09/06 13:30:28;;;;;;;;;;;28.20;42.40;;;;;;5026783;28;20011;-82
2022/09/06 13:32:53;;;;;;;;;;;28.20;42.60;;;;;;5028743;28;19917;-82
2022/09/06 13:35:23;;;;;;;;;;;28.30;42.10;;;;;;5026610;28;20371;-80
2022/09/06 13:37:48;;;;;;;;;;;28.20;42.10;;;;;;5021644;28;19917;-82
2022/09/06 13:40:33;;;;;;;;;;;28.20;41.90;;;;;;5023890;28;19980;-79
2022/09/06 13:42:59;;;;;;;;;;;28.30;41.20;;;;;;5017697;28;19925;-81
2022/09/06 13:45:28;;;;;;;;;;;28.50;41.10;;;;;;5018527;28;19921;-80
2022/09/06 13:47:53;;;;;;;;;;;28.50;41.00;;;;;;5018495;28;19923;-80
2022/09/06 13:50:19;;;;;;;;;;;28.40;41.20;;;;;;5023098;28;19996;-80
2022/09/06 13:52:44;;;;;;;;;;;28.50;41.60;;;;;;5022238;28;19917;-80
2022/09/06 13:55:14;;;;;;;;;;;28.50;41.60;;;;;;5028975;28;19913;-79
2022/09/06 13:57:39;;;;;;;;;;;28.40;41.20;;;;;;5023805;28;19941;-81
2022/09/06 14:00:05;;;;;;;;;;;28.30;42.30;;;;;;5024292;28;19916;-81
2022/09/06 14:02:31;;;;;;;;;;;28.40;41.60;;;;;;5020221;28;19918;-80
2022/09/06 14:04:56;;;;;;;;;;;28.50;41.90;;;;;;5019258;28;20328;-80
2022/09/06 14:07:22;;;;;;;;;;;28.40;43.30;;;;;;5031211;28;19922;-81
2022/09/06 14:09:48;;;;;;;;;;;28.40;41.20;;;;;;5025933;28;19917;-80
2022/09/06 14:12:14;;;;;;;;;;;28.50;41.00;;;;;;5027517;28;19920;-80
2022/09/06 14:14:39;;;;;;;;;;;28.60;40.60;;;;;;5027420;28;19913;-83
2022/09/06 14:17:05;;;;;;;;;;;28.50;40.60;;;;;;5031864;28;19913;-83
2022/09/06 14:19:30;;;;;;;;;;;28.40;41.40;;;;;;5022448;28;19921;-82
2022/09/06 14:21:56;;;;;;;;;;;28.30;41.70;;;;;;5022344;28;19917;-82
2022/09/06 14:24:21;;;;;;;;;;;28.50;42.10;;;;;;5016403;28;20060;-84
2022/09/06 14:26:47;;;;;;;;;;;28.50;41.80;;;;;;5024489;28;19936;-84